RJOARJFU

Guest
Details From RJOA - HIROSHIMA
To RJFU - NAGASAKI
Flight Number -
Tags generated
Created
Modified
Stats Distance 177 nm / 328 km
Max Altitude 18,000 ft / 5,486 m
Waypoints 3
Social Downloads 1
Likes 0
Share VATSIM

Download

Looking for another format? Having issues loading an existing format? Contact us
Advertisement - Login to hide

Notes

Basic altitude profile: - Ascent Rate: 2500ft/min - Ascent Speed: 250kts - Cruise Altitude: 35000ft - Cruise Speed: 420kts - Descent Rate: 1500ft/min - Descent Speed: 250kts Options: - Use NATs: yes - Use PACOTS: yes - Use low airways: yes - Use high airways: yes

Route

RJOA IWC45 RJFU

ID Type Via Altitude Latitude Longitude Leg Dist Tot Dist Heading (true) Name
O RJOA APT - 0 ft / 0 m 34.43603˚ 132.91944˚ - 0 nm - HIROSHIMA
IWC45 FIX - 18,000 ft / 5,486 m 33.87095˚ 131.28085˚ 88 nm 88 nm 248° / 247° -
O RJFU APT - 0 ft / 0 m 32.92250˚ 129.92346˚ 88 nm 176 nm 230° / 230° NAGASAKI

Altitude Profile

Advertisement - Login to hide

Weather


0- 5 10 15 20 25 30 35+ Temperature / ° C

Clouds and Precipitation
Forecast for 2017-12-18 06:00 UTC. Updated 29 minutes ago

Ground ~20,000 ft ~40,000 ft Winds

RJOA

Details ICAO RJOA (HIJ)
Name HIROSHIMA
Region Japan
Timezone Asia/Tokyo (UTC+9.0)
Stats Elevation 1,088 ft / 332 m (AMSL)
Location 34.436025° 132.919444°
Runways 1
Magnetic Variation 7.697° W

METAR

RJOA 180300Z 29009KT 9999 FEW020 SCT040 05/M05 Q1026

Decode

TAF

TAF RJOA 172305Z 1800/1906 28006KT 9999 FEW020 SCT030 BECMG 1903/1906 31017KT

Decode

Departure Runways

ID Width Length Bearing (true) Bearing (mag) Surface Threshold Offset Overrun Length
10 200 ft / 61 m 9,823 ft / 2,994 m 89.99° 97.69° Asphalt 0 ft / 0 m 210 ft / 64 m
28 200 ft / 61 m 9,823 ft / 2,994 m 270.01° 277.71° Asphalt 0 ft / 0 m 210 ft / 64 m

RJFU

Details ICAO RJFU (NGS)
Name NAGASAKI
Region Japan
Timezone Asia/Tokyo (UTC+9.0)
Stats Elevation 15 ft / 5 m (AMSL)
Location 32.922505° 129.923457°
Runways 2
Magnetic Variation 7.238° W

METAR

RJFU 180300Z 33009KT 9999 FEW025 SCT030 BKN045 07/00 Q1028

Decode

TAF

TAF RJFU 172305Z 1800/1906 35007KT 9999 FEW030 BKN050 BECMG 1810/1812 13010KT BECMG 1821/1900 33016KT

Decode

Destination Runways

ID Width Length Bearing (true) Bearing (mag) Surface Threshold Offset Overrun Length
14 200 ft / 61 m 9,851 ft / 3,003 m 138.12° 145.36° Asphalt 0 ft / 0 m 200 ft / 61 m
18 100 ft / 30 m 4,363 ft / 1,330 m 174.19° 181.43° Asphalt 245 ft / 75 m 0 ft / 0 m
32 200 ft / 61 m 9,851 ft / 3,003 m 318.14° 325.38° Asphalt 0 ft / 0 m 200 ft / 61 m
36 100 ft / 30 m 4,363 ft / 1,330 m 354.19° 1.43° Asphalt 245 ft / 75 m 0 ft / 0 m

Approach Navaids

Runway Type Ident Frequency Range Bearing (true) Bearing (mag) Slope Elevation
32 Localiser IOM 110.90 MHz 18 nm / 33 km 318.95° 326.19° - 30 ft / 9 m (AMSL)
32 Glidescope IOM 110.90 MHz 10 nm / 19 km 318.13° 325.37° 3.00° 15 ft / 5 m (AMSL)
32 DME IOM 110.90 MHz 18 nm / 33 km - - - 30 ft / 9 m (AMSL)

Popular Alternatives